Time;durP1;ratioP1;P1;durP2;ratioP2;P2;SDS_P1;SDS_P2;PMS_P1;PMS_P2;Temp;Humidity;BMP_temperature;BMP_pressure;BME280_temperature;BME280_humidity;BME280_pressure;Samples;Min_cycle;Max_cycle;Signal;HPM_P1;HPM_P2
2023/10/25 00:01:30;;;;;;;30.80;8.85;;;14.90;99.90;;;;;;5089608;28;20031;-76
2023/10/25 00:03:55;;;;;;;32.78;8.55;;;14.90;99.90;;;;;;5090649;28;20028;-76
2023/10/25 00:06:21;;;;;;;29.35;8.88;;;14.80;99.90;;;;;;5088878;28;20719;-76
2023/10/25 00:08:47;;;;;;;23.42;8.15;;;14.80;99.90;;;;;;5089334;28;20115;-75
2023/10/25 00:11:13;;;;;;;35.33;9.45;;;14.80;99.90;;;;;;5088919;28;20074;-76
2023/10/25 00:13:38;;;;;;;23.42;8.48;;;14.80;99.90;;;;;;5090586;28;20377;-76
2023/10/25 00:16:04;;;;;;;38.58;9.55;;;14.80;99.90;;;;;;5089317;28;20031;-75
2023/10/25 00:18:30;;;;;;;25.77;9.05;;;14.80;99.90;;;;;;5090559;28;20078;-76
2023/10/25 00:20:56;;;;;;;27.40;9.55;;;14.80;99.90;;;;;;5088637;28;20027;-76
2023/10/25 00:23:22;;;;;;;36.63;9.18;;;14.80;99.90;;;;;;5090435;28;20115;-74
2023/10/25 00:25:49;;;;;;;19.23;8.65;;;14.80;99.90;;;;;;5090300;28;20028;-75
2023/10/25 00:28:15;;;;;;;36.72;10.57;;;14.80;99.90;;;;;;5090395;28;20032;-76
2023/10/25 00:30:41;;;;;;;35.45;10.82;;;14.80;99.90;;;;;;5090306;28;20028;-75
2023/10/25 00:33:07;;;;;;;52.10;18.20;;;14.80;99.90;;;;;;5090396;28;20047;-76
2023/10/25 00:35:33;;;;;;;69.80;26.20;;;14.80;99.90;;;;;;5089902;28;20028;-76
2023/10/25 00:37:58;;;;;;;47.10;16.38;;;14.90;99.90;;;;;;5089117;28;20404;-74
2023/10/25 00:40:24;;;;;;;41.60;12.02;;;14.90;99.90;;;;;;5088845;28;20056;-77
2023/10/25 00:42:50;;;;;;;39.35;10.38;;;14.80;99.90;;;;;;5090122;28;20016;-76
2023/10/25 00:45:16;;;;;;;35.55;10.63;;;14.90;99.90;;;;;;5088786;28;20032;-75
2023/10/25 00:47:43;;;;;;;44.50;10.32;;;14.90;99.90;;;;;;5089698;28;20031;-75
2023/10/25 00:50:10;;;;;;;27.67;9.50;;;14.90;99.90;;;;;;5088845;28;20146;-78
2023/10/25 00:52:39;;;;;;;33.38;8.65;;;14.90;99.90;;;;;;5088629;28;20424;-76
2023/10/25 00:55:05;;;;;;;34.90;8.95;;;15.00;99.90;;;;;;5089883;28;20027;-76
2023/10/25 00:57:32;;;;;;;23.25;7.90;;;14.90;99.90;;;;;;5088476;28;20032;-78
2023/10/25 01:00:00;;;;;;;28.33;8.85;;;14.90;99.90;;;;;;5088529;28;20492;-76
2023/10/25 01:02:26;;;;;;;35.33;10.57;;;14.90;99.90;;;;;;5089887;28;20432;-75
2023/10/25 01:04:52;;;;;;;41.10;9.02;;;14.90;99.90;;;;;;5089841;28;20469;-76
2023/10/25 01:07:17;;;;;;;33.90;10.88;;;14.80;99.90;;;;;;5089756;28;20053;-76
2023/10/25 01:09:43;;;;;;;28.42;10.15;;;14.80;99.90;;;;;;5088302;28;20490;-76
2023/10/25 01:12:09;;;;;;;26.23;9.00;;;14.70;99.90;;;;;;5087626;28;20063;-77
2023/10/25 01:14:36;;;;;;;22.55;9.52;;;14.70;99.90;;;;;;5089871;28;20073;-75
2023/10/25 01:17:02;;;;;;;24.25;9.38;;;14.70;99.90;;;;;;5089788;28;20047;-75
2023/10/25 01:19:28;;;;;;;34.20;12.75;;;14.70;99.90;;;;;;5089638;28;20102;-75
2023/10/25 01:21:53;;;;;;;27.42;11.02;;;14.80;99.90;;;;;;5088628;28;20036;-76
2023/10/25 01:24:20;;;;;;;28.15;11.75;;;14.80;99.90;;;;;;5089335;28;20055;-76
2023/10/25 01:26:46;;;;;;;26.88;10.23;;;14.80;99.90;;;;;;5089669;28;20034;-74
2023/10/25 01:29:12;;;;;;;21.95;9.27;;;14.80;99.90;;;;;;5088121;28;20119;-75
2023/10/25 01:31:37;;;;;;;22.73;9.75;;;14.80;99.90;;;;;;5089349;28;20059;-77
2023/10/25 01:34:03;;;;;;;26.05;11.98;;;14.80;99.90;;;;;;5092823;28;20036;-76
2023/10/25 01:36:29;;;;;;;31.05;9.90;;;14.80;99.90;;;;;;5093690;28;20531;-75
2023/10/25 01:38:54;;;;;;;26.95;10.35;;;14.80;99.90;;;;;;5093676;28;20028;-74
2023/10/25 01:41:20;;;;;;;23.48;10.38;;;14.80;99.90;;;;;;5092505;28;20519;-75
2023/10/25 01:43:46;;;;;;;29.08;9.88;;;14.80;99.90;;;;;;5093237;28;20442;-74
2023/10/25 01:46:11;;;;;;;41.00;11.65;;;14.80;99.90;;;;;;5093435;28;20095;-74
2023/10/25 01:48:37;;;;;;;38.95;11.27;;;14.80;99.90;;;;;;5093522;28;20024;-75
2023/10/25 01:51:08;;;;;;;49.05;13.23;;;14.80;99.90;;;;;;5093311;28;20036;-75
2023/10/25 01:53:34;;;;;;;25.90;11.70;;;14.80;99.90;;;;;;5091947;28;20024;-74
2023/10/25 01:56:00;;;;;;;35.17;11.82;;;14.80;99.90;;;;;;5092820;28;20039;-74
2023/10/25 01:58:26;;;;;;;36.08;10.75;;;14.80;99.90;;;;;;5087045;28;20503;-75
2023/10/25 02:00:51;;;;;;;39.08;12.60;;;14.80;99.90;;;;;;5078514;28;20021;-74
2023/10/25 02:03:17;;;;;;;50.30;13.35;;;14.80;99.90;;;;;;5081672;28;20130;-74
2023/10/25 02:05:43;;;;;;;41.55;12.98;;;14.80;99.90;;;;;;5091187;28;20198;-76
2023/10/25 02:08:09;;;;;;;30.52;12.10;;;14.80;99.90;;;;;;5092969;28;20030;-75
2023/10/25 02:10:34;;;;;;;27.85;9.60;;;14.80;99.90;;;;;;5091338;28;20101;-74
2023/10/25 02:13:00;;;;;;;31.50;11.80;;;14.80;99.90;;;;;;5092957;28;20055;-77
2023/10/25 02:15:27;;;;;;;36.30;12.20;;;14.80;99.90;;;;;;5091748;28;20036;-76
2023/10/25 02:17:52;;;;;;;41.67;11.98;;;14.80;99.90;;;;;;5087466;28;20039;-74
2023/10/25 02:20:18;;;;;;;43.70;12.45;;;14.80;99.90;;;;;;5072394;28;20028;-75
2023/10/25 02:22:44;;;;;;;36.92;13.40;;;14.80;99.90;;;;;;5088172;28;20020;-76
2023/10/25 02:25:09;;;;;;;40.40;12.88;;;14.70;99.90;;;;;;5087776;28;20036;-75
2023/10/25 02:27:35;;;;;;;41.70;12.60;;;14.80;99.90;;;;;;5072145;28;20052;-74
2023/10/25 02:30:01;;;;;;;29.45;10.57;;;14.80;99.90;;;;;;5072364;28;20458;-75
2023/10/25 02:32:26;;;;;;;37.80;12.32;;;14.80;99.90;;;;;;5087742;28;20554;-75
2023/10/25 02:34:52;;;;;;;40.70;12.48;;;14.80;99.90;;;;;;5087378;28;20028;-75
2023/10/25 02:37:18;;;;;;;47.90;12.80;;;14.70;99.90;;;;;;5072054;28;20062;-74
2023/10/25 02:39:43;;;;;;;31.52;11.07;;;14.80;99.90;;;;;;5087809;28;20028;-75
2023/10/25 02:42:09;;;;;;;40.53;11.30;;;14.80;99.90;;;;;;5087816;28;20033;-75
2023/10/25 02:44:35;;;;;;;36.28;11.40;;;14.80;99.90;;;;;;5087224;28;20032;-75
2023/10/25 02:47:00;;;;;;;53.00;16.95;;;14.70;99.90;;;;;;5071950;28;20025;-75
2023/10/25 02:49:26;;;;;;;53.53;14.32;;;14.80;99.90;;;;;;5087650;28;20463;-75
2023/10/25 02:51:52;;;;;;;35.67;12.82;;;14.80;99.90;;;;;;5087468;28;20492;-75
2023/10/25 02:54:17;;;;;;;31.40;11.35;;;14.80;99.90;;;;;;5071887;28;20055;-76
2023/10/25 02:56:43;;;;;;;43.25;14.48;;;14.80;99.90;;;;;;5087428;28;20035;-77
2023/10/25 02:59:09;;;;;;;41.90;13.45;;;14.80;99.90;;;;;;5087444;28;20123;-74
2023/10/25 03:01:34;;;;;;;28.58;11.32;;;14.80;99.90;;;;;;5071759;28;20411;-74
2023/10/25 03:04:01;;;;;;;32.10;11.40;;;14.80;99.90;;;;;;5072315;28;20031;-76
2023/10/25 03:06:26;;;;;;;35.17;10.52;;;14.80;99.90;;;;;;5087695;28;20032;-76
2023/10/25 03:08:52;;;;;;;26.98;12.02;;;14.80;99.90;;;;;;5087274;28;20031;-75
2023/10/25 03:11:18;;;;;;;26.05;10.88;;;14.70;99.90;;;;;;5086576;28;20409;-76
2023/10/25 03:13:43;;;;;;;65.68;24.00;;;14.70;99.90;;;;;;5086775;28;20074;-76
2023/10/25 03:16:09;;;;;;;52.95;18.13;;;14.80;99.90;;;;;;5071414;28;20024;-74
2023/10/25 03:18:35;;;;;;;31.35;11.23;;;14.80;99.90;;;;;;5071382;28;20102;-74
2023/10/25 03:21:03;;;;;;;25.25;9.88;;;14.90;99.90;;;;;;5071395;28;20017;-74
2023/10/25 03:23:30;;;;;;;36.35;13.75;;;14.80;99.90;;;;;;5070053;28;20029;-75
2023/10/25 03:26:06;;;;;;;35.55;11.35;;;14.80;99.90;;;;;;5071168;28;20024;-74
2023/10/25 03:28:32;;;;;;;29.23;10.30;;;14.80;99.90;;;;;;5086929;28;20060;-75
2023/10/25 03:30:58;;;;;;;32.75;10.02;;;14.70;99.90;;;;;;5086640;28;20124;-75
2023/10/25 03:33:24;;;;;;;24.42;9.43;;;14.80;99.90;;;;;;5086734;28;20564;-74
2023/10/25 03:35:53;;;;;;;21.40;9.65;;;14.90;99.90;;;;;;5071120;28;20107;-77
2023/10/25 03:38:19;;;;;;;35.33;13.40;;;14.80;99.90;;;;;;5069705;28;20550;-77
2023/10/25 03:40:46;;;;;;;35.80;14.32;;;14.90;99.90;;;;;;5086605;28;20029;-77
2023/10/25 03:43:11;;;;;;;28.95;13.43;;;14.80;99.90;;;;;;5070877;28;20071;-75
2023/10/25 03:45:37;;;;;;;30.17;15.32;;;14.80;99.90;;;;;;5070901;28;20482;-77
2023/10/25 03:48:03;;;;;;;34.60;15.95;;;14.80;99.90;;;;;;5070854;28;20404;-77
2023/10/25 03:50:29;;;;;;;40.53;15.90;;;14.80;99.90;;;;;;5086469;28;20017;-76
2023/10/25 03:52:54;;;;;;;34.83;17.58;;;14.70;99.90;;;;;;5071058;28;20032;-74
2023/10/25 03:55:20;;;;;;;42.90;17.40;;;14.70;99.90;;;;;;5069632;28;20051;-75
2023/10/25 03:57:46;;;;;;;36.35;17.48;;;14.70;99.90;;;;;;5070286;28;20400;-74
2023/10/25 04:00:12;;;;;;;34.83;16.67;;;14.70;99.90;;;;;;5070607;28;20492;-76
2023/10/25 04:02:38;;;;;;;36.00;18.52;;;14.70;99.90;;;;;;5070562;28;20029;-74
2023/10/25 04:05:04;;;;;;;56.22;21.92;;;14.70;99.90;;;;;;5086087;28;20493;-75
2023/10/25 04:07:29;;;;;;;44.88;17.80;;;14.70;99.90;;;;;;5070382;28;20032;-75
2023/10/25 04:09:55;;;;;;;43.88;18.50;;;14.70;99.90;;;;;;5085699;28;20396;-75
2023/10/25 04:12:21;;;;;;;33.53;16.95;;;14.70;99.90;;;;;;5070237;28;20054;-76
2023/10/25 04:14:46;;;;;;;60.08;21.88;;;14.70;99.90;;;;;;5070251;28;20024;-74
2023/10/25 04:17:12;;;;;;;52.53;20.75;;;14.70;99.90;;;;;;5085800;28;20119;-75
2023/10/25 04:19:39;;;;;;;48.28;19.17;;;14.60;99.90;;;;;;5070310;28;20120;-76
2023/10/25 04:22:05;;;;;;;33.85;15.07;;;14.70;99.90;;;;;;5070121;28;20032;-75
2023/10/25 04:24:31;;;;;;;48.10;17.83;;;14.60;99.90;;;;;;5085977;28;20090;-75
2023/10/25 04:26:57;;;;;;;30.80;13.50;;;14.60;99.90;;;;;;5070072;28;20070;-76
2023/10/25 04:29:22;;;;;;;26.02;13.00;;;14.60;99.90;;;;;;5085737;28;20056;-74
2023/10/25 04:31:48;;;;;;;21.58;11.05;;;14.70;99.90;;;;;;5085349;28;20102;-74
2023/10/25 04:34:13;;;;;;;24.17;12.00;;;14.70;99.90;;;;;;5069977;28;20028;-75
2023/10/25 04:36:39;;;;;;;34.10;14.05;;;14.70;99.90;;;;;;5069897;28;20037;-74
2023/10/25 04:39:07;;;;;;;25.75;12.20;;;14.70;99.90;;;;;;5069855;28;20214;-76
2023/10/25 04:41:32;;;;;;;34.08;13.13;;;14.60;99.90;;;;;;5085464;28;20131;-75
2023/10/25 04:43:58;;;;;;;41.40;15.15;;;14.60;99.90;;;;;;5069904;28;20103;-74
2023/10/25 04:46:23;;;;;;;46.60;16.67;;;14.70;99.90;;;;;;5069697;28;20035;-75
2023/10/25 04:48:49;;;;;;;50.13;19.00;;;14.70;99.90;;;;;;5069658;28;20033;-75
2023/10/25 04:51:15;;;;;;;52.20;18.92;;;14.70;99.90;;;;;;5085211;28;20067;-75
2023/10/25 04:53:41;;;;;;;44.70;16.55;;;14.70;99.90;;;;;;5069714;28;20190;-74
2023/10/25 04:56:07;;;;;;;35.55;16.45;;;14.70;99.90;;;;;;5069743;28;20036;-74
2023/10/25 04:58:32;;;;;;;56.28;19.48;;;14.70;99.90;;;;;;5085251;28;20123;-74
2023/10/25 05:00:58;;;;;;;41.10;18.83;;;14.70;99.90;;;;;;5069911;28;20028;-75
2023/10/25 05:03:24;;;;;;;44.97;19.48;;;14.70;99.90;;;;;;5085108;28;20158;-75
2023/10/25 05:05:50;;;;;;;55.08;22.77;;;14.70;99.90;;;;;;5069605;28;20036;-75
2023/10/25 05:08:15;;;;;;;44.55;21.13;;;14.60;99.90;;;;;;5069585;28;20032;-75
2023/10/25 05:10:41;;;;;;;49.88;21.58;;;14.60;99.90;;;;;;5084588;28;20047;-76
2023/10/25 05:13:08;;;;;;;54.80;24.40;;;14.60;99.90;;;;;;5084651;28;20318;-75
2023/10/25 05:15:37;;;;;;;55.70;23.40;;;14.60;99.90;;;;;;5069475;28;20021;-75
2023/10/25 05:18:03;;;;;;;40.42;20.90;;;14.60;99.90;;;;;;5084967;28;20400;-76
2023/10/25 05:20:29;;;;;;;46.10;19.33;;;14.60;99.90;;;;;;5084524;28;20028;-74
2023/10/25 05:22:56;;;;;;;39.10;18.17;;;14.60;99.90;;;;;;5069814;28;20039;-74
2023/10/25 05:25:22;;;;;;;37.00;17.05;;;14.60;99.90;;;;;;5069399;28;20033;-74
2023/10/25 05:27:48;;;;;;;34.50;14.98;;;14.60;99.90;;;;;;5069389;28;20036;-77
2023/10/25 05:30:16;;;;;;;29.00;14.73;;;14.50;99.90;;;;;;5084971;28;20366;-77
2023/10/25 05:32:48;;;;;;;37.45;15.32;;;14.50;99.90;;;;;;5069258;28;20039;-76
2023/10/25 05:35:14;;;;;;;34.13;14.77;;;14.60;99.90;;;;;;5084927;28;20024;-74
2023/10/25 05:37:41;;;;;;;48.72;18.35;;;14.50;99.90;;;;;;5084904;28;20047;-75
2023/10/25 05:40:07;;;;;;;34.33;15.43;;;14.60;99.90;;;;;;5069506;28;20028;-76
2023/10/25 05:42:47;;;;;;;28.60;15.82;;;14.60;99.90;;;;;;5069608;28;20139;-76
2023/10/25 05:45:14;;;;;;;33.05;15.30;;;14.60;99.90;;;;;;5084805;28;20021;-76
2023/10/25 05:47:40;;;;;;;41.55;16.10;;;14.60;99.90;;;;;;5069330;28;20024;-76
2023/10/25 05:50:07;;;;;;;43.58;16.63;;;14.60;99.90;;;;;;5085063;28;20025;-76
2023/10/25 05:52:34;;;;;;;45.13;15.98;;;14.70;99.90;;;;;;5069248;28;20040;-77
2023/10/25 05:55:00;;;;;;;42.30;16.15;;;14.70;99.90;;;;;;5084797;28;20143;-77
2023/10/25 05:57:25;;;;;;;33.38;15.10;;;14.70;99.90;;;;;;5084718;28;20112;-76
2023/10/25 05:59:51;;;;;;;44.45;15.27;;;14.70;99.90;;;;;;5084589;28;20047;-76
2023/10/25 06:02:22;;;;;;;37.22;15.25;;;14.80;99.90;;;;;;5068956;28;20032;-76
2023/10/25 06:04:49;;;;;;;43.25;14.80;;;14.80;99.90;;;;;;5069413;28;20021;-77
2023/10/25 06:07:15;;;;;;;47.10;15.70;;;14.80;99.90;;;;;;5068981;28;20476;-75
2023/10/25 06:09:41;;;;;;;14.52;6.43;;;14.80;99.90;;;;;;5069065;28;20136;-75
2023/10/25 06:12:08;;;;;;;5.13;2.30;;;14.80;99.90;;;;;;5068927;28;20584;-76
2023/10/25 06:14:34;;;;;;;2.83;0.77;;;14.80;99.90;;;;;;5067860;28;20033;-75
2023/10/25 06:17:00;;;;;;;2.35;0.60;;;14.70;99.90;;;;;;5067963;28;20115;-76
2023/10/25 06:19:27;;;;;;;1.50;0.65;;;14.60;99.90;;;;;;5069793;28;20025;-75
2023/10/25 06:21:54;;;;;;;2.08;0.90;;;14.50;99.90;;;;;;5072338;28;20032;-77
2023/10/25 06:24:20;;;;;;;5.65;1.55;;;14.40;99.90;;;;;;5072444;28;20100;-78
2023/10/25 06:26:45;;;;;;;2.35;1.23;;;14.40;99.90;;;;;;5072575;28;20040;-77
2023/10/25 06:29:11;;;;;;;4.15;1.13;;;14.30;99.90;;;;;;5072494;28;20405;-75
2023/10/25 06:31:37;;;;;;;3.70;1.52;;;14.20;99.90;;;;;;5071041;28;20079;-75
2023/10/25 06:34:03;;;;;;;5.35;2.10;;;14.10;99.90;;;;;;5070976;28;20029;-76
2023/10/25 06:36:30;;;;;;;;;;;14.10;99.90;;;;;;5071371;28;20060;-77
2023/10/25 06:38:56;;;;;;;5.05;2.33;;;14.10;99.90;;;;;;5072456;28;19908;-77
2023/10/25 06:41:22;;;;;;;5.25;2.38;;;14.00;99.90;;;;;;5072377;28;20443;-77
2023/10/25 06:43:49;;;;;;;4.40;2.20;;;14.00;99.90;;;;;;5070925;28;20060;-75
2023/10/25 06:46:15;;;;;;;4.28;2.17;;;14.00;99.90;;;;;;5071733;28;20036;-76
2023/10/25 06:48:41;;;;;;;3.80;2.20;;;14.00;99.90;;;;;;5070991;28;20373;-75
2023/10/25 06:51:08;;;;;;;4.60;2.70;;;14.00;99.90;;;;;;5070725;28;20739;-76
2023/10/25 06:53:36;;;;;;;5.65;2.97;;;13.90;99.90;;;;;;5072124;28;20082;-76
2023/10/25 06:56:02;;;;;;;7.03;3.42;;;14.00;99.90;;;;;;5071897;28;20020;-75
2023/10/25 06:58:28;;;;;;;6.40;3.92;;;13.90;99.90;;;;;;5071433;28;20069;-75
2023/10/25 07:00:56;;;;;;;7.93;3.80;;;13.90;99.90;;;;;;5070668;28;20052;-76
2023/10/25 07:03:27;;;;;;;8.02;4.60;;;14.00;99.90;;;;;;5071851;28;20401;-76
2023/10/25 07:05:55;;;;;;;9.32;4.32;;;14.00;99.90;;;;;;5070410;28;20025;-76
2023/10/25 07:08:21;;;;;;;7.40;4.22;;;14.10;99.90;;;;;;5071378;28;20029;-76
2023/10/25 07:10:47;;;;;;;10.38;5.72;;;14.10;99.90;;;;;;5071006;28;20048;-76
2023/10/25 07:13:13;;;;;;;9.48;5.05;;;14.20;99.90;;;;;;5070567;28;20056;-75
2023/10/25 07:15:39;;;;;;;8.80;4.50;;;14.30;99.90;;;;;;5071494;28;20090;-77
2023/10/25 07:18:05;;;;;;;9.20;4.75;;;14.40;99.90;;;;;;5071261;28;20039;-75
2023/10/25 07:20:31;;;;;;;9.38;4.40;;;14.40;99.90;;;;;;5071280;28;20050;-75
2023/10/25 07:22:57;;;;;;;8.10;4.45;;;14.40;99.90;;;;;;5070339;28;20016;-77
2023/10/25 07:25:22;;;;;;;10.45;5.05;;;14.50;99.90;;;;;;5071202;28;20409;-77
2023/10/25 07:27:48;;;;;;;7.93;4.95;;;14.40;99.90;;;;;;5069859;28;20028;-77
2023/10/25 07:30:14;;;;;;;12.70;5.43;;;14.40;99.90;;;;;;5070442;28;20039;-76
2023/10/25 07:32:40;;;;;;;9.98;5.43;;;14.40;99.90;;;;;;5069924;28;20500;-78
2023/10/25 07:35:06;;;;;;;9.57;5.38;;;14.40;99.90;;;;;;5070246;28;20506;-77
2023/10/25 07:37:32;;;;;;;14.02;6.68;;;14.40;99.90;;;;;;5070032;28;20035;-77
2023/10/25 07:39:58;;;;;;;15.68;7.60;;;14.40;99.90;;;;;;5071131;28;20028;-77
2023/10/25 07:42:24;;;;;;;11.25;7.65;;;14.40;99.90;;;;;;5071201;28;20025;-76
2023/10/25 07:44:50;;;;;;;16.27;9.38;;;14.30;99.90;;;;;;5071095;28;20207;-76
2023/10/25 07:47:17;;;;;;;12.15;8.43;;;14.30;99.90;;;;;;5070904;28;20036;-75
2023/10/25 07:49:45;;;;;;;13.82;8.38;;;14.30;99.90;;;;;;5071408;28;20035;-78
2023/10/25 07:52:12;;;;;;;14.48;8.13;;;14.30;99.90;;;;;;5070871;28;20041;-75
2023/10/25 07:54:37;;;;;;;11.70;7.95;;;14.30;99.90;;;;;;5070886;28;20068;-76
2023/10/25 07:57:03;;;;;;;14.05;8.07;;;14.40;99.90;;;;;;5070946;28;20075;-76
2023/10/25 07:59:29;;;;;;;12.50;8.32;;;14.40;99.90;;;;;;5070811;28;20087;-76
2023/10/25 08:01:56;;;;;;;13.20;8.18;;;14.50;99.90;;;;;;5069327;28;20035;-76
2023/10/25 08:04:22;;;;;;;13.82;8.82;;;14.60;99.90;;;;;;5070801;28;20393;-77
2023/10/25 08:06:48;;;;;;;11.60;7.63;;;14.60;99.90;;;;;;5070739;28;20036;-77
2023/10/25 08:09:13;;;;;;;8.95;6.43;;;14.60;99.90;;;;;;5070621;28;20031;-77
2023/10/25 08:11:39;;;;;;;14.80;7.60;;;14.70;99.90;;;;;;5068830;28;20037;-76
2023/10/25 08:14:05;;;;;;;12.65;7.63;;;14.70;99.90;;;;;;5069140;28;20035;-76
2023/10/25 08:16:30;;;;;;;11.15;7.50;;;14.70;99.90;;;;;;5069380;28;20028;-77
2023/10/25 08:18:56;;;;;;;10.82;7.57;;;14.80;99.90;;;;;;5068962;28;20029;-76
2023/10/25 08:21:22;;;;;;;9.18;6.38;;;14.80;99.90;;;;;;5068649;28;20112;-78
2023/10/25 08:23:51;;;;;;;9.07;6.68;;;14.90;99.90;;;;;;5069364;28;20060;-77
2023/10/25 08:26:18;;;;;;;8.40;6.90;;;15.00;99.90;;;;;;5068935;28;20025;-76
2023/10/25 08:28:44;;;;;;;10.50;6.38;;;15.00;99.90;;;;;;5068994;28;20027;-77
2023/10/25 08:31:12;;;;;;;6.85;4.78;;;15.10;99.90;;;;;;5068830;28;20041;-78
2023/10/25 08:33:37;;;;;;;7.57;4.97;;;15.10;99.90;;;;;;5068713;28;20033;-76
2023/10/25 08:36:03;;;;;;;7.15;5.00;;;15.10;99.90;;;;;;5069880;28;20016;-75
2023/10/25 08:38:29;;;;;;;5.70;4.22;;;15.10;99.90;;;;;;5068753;28;20034;-75
2023/10/25 08:41:05;;;;;;;6.80;5.07;;;15.10;99.90;;;;;;5068478;28;20020;-77
2023/10/25 08:43:37;;;;;;;7.78;5.03;;;15.10;99.90;;;;;;5068554;28;20070;-76
2023/10/25 08:46:03;;;;;;;9.65;4.68;;;15.00;99.90;;;;;;5068570;28;20526;-75
2023/10/25 08:48:29;;;;;;;6.30;4.15;;;15.00;99.90;;;;;;5069929;28;20016;-75
2023/10/25 08:50:56;;;;;;;7.28;4.30;;;14.90;99.90;;;;;;5068421;28;20028;-77
2023/10/25 08:53:27;;;;;;;6.07;4.10;;;14.90;99.90;;;;;;5068642;28;20047;-76
2023/10/25 08:55:55;;;;;;;7.80;3.50;;;15.00;99.90;;;;;;5068386;28;20028;-76
2023/10/25 08:58:21;;;;;;;6.50;4.15;;;15.00;99.90;;;;;;5069862;28;20136;-77
2023/10/25 09:00:47;;;;;;;7.25;3.88;;;15.00;99.90;;;;;;5069843;28;20054;-77
2023/10/25 09:03:31;;;;;;;5.55;4.00;;;15.00;99.90;;;;;;5069731;28;20544;-75
2023/10/25 09:05:57;;;;;;;5.63;4.03;;;15.00;99.90;;;;;;5068411;28;20034;-77
2023/10/25 09:08:27;;;;;;;7.25;4.35;;;15.00;99.90;;;;;;5069948;28;20059;-76
2023/10/25 09:11:19;;;;;;;5.25;3.40;;;15.00;99.90;;;;;;5068122;28;20056;-77
2023/10/25 09:13:54;;;;;;;5.82;3.75;;;15.00;99.90;;;;;;5069017;28;20381;-76
2023/10/25 09:16:19;;;;;;;6.97;3.85;;;15.00;99.90;;;;;;5068095;28;20049;-76
2023/10/25 09:18:45;;;;;;;6.68;3.45;;;15.10;99.90;;;;;;5069720;28;20032;-76
2023/10/25 09:21:11;;;;;;;8.05;3.53;;;15.10;99.90;;;;;;5069684;28;20497;-75
2023/10/25 09:23:36;;;;;;;6.22;3.75;;;15.10;99.90;;;;;;5068354;28;20032;-76
2023/10/25 09:26:13;;;;;;;6.57;3.75;;;15.10;99.90;;;;;;5067817;28;20028;-75
2023/10/25 09:28:39;;;;;;;8.27;4.07;;;15.20;99.90;;;;;;5069500;28;20542;-75
2023/10/25 09:31:20;;;;;;;9.52;4.05;;;15.20;99.90;;;;;;5067813;28;20025;-75
2023/10/25 09:33:47;;;;;;;5.28;3.08;;;15.30;99.90;;;;;;5067993;28;20020;-77
2023/10/25 09:36:13;;;;;;;5.32;4.07;;;15.40;99.90;;;;;;5067977;28;20032;-77
2023/10/25 09:38:39;;;;;;;7.78;3.65;;;15.50;99.90;;;;;;5068304;28;20070;-77
2023/10/25 09:41:10;;;;;;;6.03;3.35;;;15.70;99.90;;;;;;5068281;28;20043;-74
2023/10/25 09:43:36;;;;;;;4.20;3.38;;;15.80;99.90;;;;;;5069360;28;20017;-76
2023/10/25 09:46:05;;;;;;;5.80;3.80;;;15.90;99.90;;;;;;5068929;28;20036;-76
2023/10/25 09:48:36;;;;;;;5.03;3.13;;;15.90;99.90;;;;;;5069299;28;20028;-75
2023/10/25 09:51:20;;;;;;;4.53;3.28;;;16.00;99.90;;;;;;5069201;28;20558;-75
2023/10/25 09:54:11;;;;;;;4.82;2.75;;;16.00;99.90;;;;;;5069215;28;20031;-77
2023/10/25 09:56:38;;;;;;;6.57;3.72;;;16.00;99.90;;;;;;5071832;28;20031;-78
2023/10/25 09:59:11;;;;;;;7.70;2.95;;;16.00;99.90;;;;;;5073040;28;20024;-76
2023/10/25 10:01:38;;;;;;;5.25;2.72;;;16.10;99.90;;;;;;5071501;28;20052;-75
2023/10/25 10:04:39;;;;;;;6.53;2.80;;;16.10;99.90;;;;;;5072724;28;20033;-77
2023/10/25 10:07:48;;;;;;;4.75;2.58;;;16.20;99.90;;;;;;5072097;28;20764;-76
2023/10/25 10:10:37;;;;;;;4.15;2.53;;;16.20;99.90;;;;;;5072488;28;20417;-76
2023/10/25 10:13:16;;;;;;;4.55;2.38;;;16.30;99.90;;;;;;5071307;28;20504;-79
2023/10/25 10:16:02;;;;;;;6.18;2.47;;;16.30;99.90;;;;;;5071272;28;20032;-77
2023/10/25 10:18:35;;;;;;;4.20;2.10;;;16.40;99.90;;;;;;5072587;28;20054;-76
2023/10/25 10:21:08;;;;;;;7.20;2.13;;;16.60;99.90;;;;;;5072615;28;20059;-78
2023/10/25 10:23:39;;;;;;;3.75;2.00;;;16.70;99.90;;;;;;5071096;28;20048;-76
2023/10/25 10:26:08;;;;;;;4.45;1.88;;;16.80;99.90;;;;;;5068890;28;20075;-76
2023/10/25 10:28:42;;;;;;;6.43;1.83;;;16.90;99.90;;;;;;5072207;28;20048;-78
2023/10/25 10:31:09;;;;;;;3.25;1.60;;;16.90;99.90;;;;;;5087886;28;20035;-76
2023/10/25 10:33:45;;;;;;;5.70;2.13;;;16.90;99.90;;;;;;5071098;28;20493;-76
2023/10/25 10:36:22;;;;;;;2.85;1.40;;;16.90;99.90;;;;;;5072439;28;20025;-76
2023/10/25 10:39:22;;;;;;;4.15;1.60;;;16.90;99.90;;;;;;5071002;28;20028;-76
2023/10/25 10:41:47;;;;;;;3.42;1.50;;;16.90;99.90;;;;;;5059943;28;20837;-76
2023/10/25 10:44:13;;;;;;;5.90;1.70;;;16.80;99.90;;;;;;5070850;28;20032;-77
2023/10/25 10:46:53;;;;;;;1.90;1.20;;;16.80;99.90;;;;;;5070957;28;20111;-78
2023/10/25 10:49:20;;;;;;;4.55;1.52;;;16.80;99.90;;;;;;5072170;28;20035;-75
2023/10/25 10:51:48;;;;;;;1.92;1.13;;;16.80;99.90;;;;;;5070557;28;20515;-77
2023/10/25 10:54:13;;;;;;;2.10;1.30;;;16.90;99.90;;;;;;5070619;28;20028;-77
2023/10/25 10:56:39;;;;;;;4.05;1.35;;;16.90;99.90;;;;;;5070699;28;20094;-76
2023/10/25 10:59:06;;;;;;;4.30;1.60;;;16.90;99.90;;;;;;5071822;28;20111;-76
2023/10/25 11:01:32;;;;;;;2.13;1.33;;;16.90;99.90;;;;;;5070512;28;20039;-79
2023/10/25 11:03:58;;;;;;;3.42;1.67;;;16.90;99.90;;;;;;5071687;28;20185;-78
2023/10/25 11:06:25;;;;;;;3.28;1.30;;;16.90;99.90;;;;;;5070369;28;20123;-77
2023/10/25 11:08:52;;;;;;;3.15;1.75;;;17.00;99.90;;;;;;5071538;28;20036;-78
2023/10/25 11:11:21;;;;;;;2.05;1.20;;;17.10;99.90;;;;;;5071439;28;20160;-77
2023/10/25 11:13:50;;;;;;;3.85;1.48;;;17.10;99.90;;;;;;5086967;28;20492;-77
2023/10/25 11:16:16;;;;;;;2.72;1.50;;;17.20;99.90;;;;;;5070119;28;20121;-76
2023/10/25 11:18:42;;;;;;;3.75;1.40;;;17.20;99.90;;;;;;5070551;28;20037;-76
2023/10/25 11:21:07;;;;;;;3.90;1.33;;;17.30;99.90;;;;;;5070176;28;20534;-76
2023/10/25 11:23:33;;;;;;;4.38;1.20;;;17.30;99.90;;;;;;5071198;28;20037;-74
2023/10/25 11:25:59;;;;;;;2.53;1.05;;;17.40;99.90;;;;;;5069972;28;20032;-75
2023/10/25 11:28:26;;;;;;;4.93;1.35;;;17.50;99.90;;;;;;5070006;28;20040;-76
2023/10/25 11:30:52;;;;;;;2.10;1.20;;;17.40;99.90;;;;;;5086687;28;20033;-75
2023/10/25 11:33:18;;;;;;;3.30;1.35;;;17.30;99.90;;;;;;5071239;28;20029;-79
2023/10/25 11:35:45;;;;;;;1.67;0.80;;;17.10;99.90;;;;;;5069721;28;20541;-78
2023/10/25 11:38:11;;;;;;;3.88;1.20;;;16.90;99.90;;;;;;5071186;28;20437;-78
2023/10/25 11:40:43;;;;;;;5.32;1.30;;;16.90;99.90;;;;;;5070045;28;20431;-79
2023/10/25 11:43:10;;;;;;;4.18;1.17;;;16.90;99.90;;;;;;5071248;28;20358;-78
2023/10/25 11:45:37;;;;;;;2.28;1.00;;;16.90;99.90;;;;;;5070999;28;20021;-77
2023/10/25 11:48:04;;;;;;;4.57;1.00;;;16.90;99.90;;;;;;5069585;28;20120;-78
2023/10/25 11:50:30;;;;;;;2.78;1.38;;;16.90;99.90;;;;;;5070812;28;20536;-78
2023/10/25 11:52:58;;;;;;;1.52;0.88;;;17.00;99.90;;;;;;5070705;28;20447;-78
2023/10/25 11:55:25;;;;;;;3.17;1.27;;;17.00;99.90;;;;;;5069698;28;20032;-78
2023/10/25 11:57:51;;;;;;;1.70;1.08;;;17.10;99.90;;;;;;5070670;28;20096;-77
2023/10/25 12:00:17;;;;;;;3.50;1.00;;;17.00;99.90;;;;;;5070689;28;20147;-78
2023/10/25 12:02:43;;;;;;;4.60;1.00;;;17.00;99.90;;;;;;5071211;28;20043;-79
2023/10/25 12:05:10;;;;;;;1.98;1.10;;;17.00;99.90;;;;;;5069228;28;20035;-78
2023/10/25 12:07:36;;;;;;;3.15;1.20;;;17.00;99.90;;;;;;5071064;28;20027;-78
2023/10/25 12:10:04;;;;;;;4.47;1.17;;;17.00;99.90;;;;;;5069175;28;20028;-78
2023/10/25 12:12:30;;;;;;;2.08;0.90;;;17.10;99.90;;;;;;5068868;28;20040;-77
2023/10/25 12:14:56;;;;;;;5.43;0.80;;;17.20;99.90;;;;;;5068810;28;20050;-77
2023/10/25 12:17:22;;;;;;;4.53;0.98;;;17.30;99.90;;;;;;5069242;28;20033;-78
2023/10/25 12:19:50;;;;;;;2.05;0.75;;;17.30;99.90;;;;;;5069969;28;20084;-78
2023/10/25 12:22:16;;;;;;;5.50;1.13;;;17.40;99.90;;;;;;5070644;28;20036;-78
2023/10/25 12:24:43;;;;;;;1.67;0.88;;;17.40;99.90;;;;;;5068783;28;20758;-78
2023/10/25 12:27:09;;;;;;;2.38;1.00;;;17.50;99.90;;;;;;5068908;28;20115;-77
2023/10/25 12:29:35;;;;;;;2.28;1.00;;;17.40;99.90;;;;;;5068588;28;20435;-77
2023/10/25 12:32:03;;;;;;;4.50;1.10;;;17.30;99.90;;;;;;5068843;28;20059;-77
2023/10/25 12:34:29;;;;;;;3.08;1.02;;;17.30;99.90;;;;;;5069977;28;20077;-79
2023/10/25 12:36:55;;;;;;;2.55;0.85;;;17.20;99.90;;;;;;5069888;28;20021;-79
2023/10/25 12:39:20;;;;;;;3.08;1.10;;;17.20;99.90;;;;;;5069735;28;20408;-77